createdAt,value
2019-02-02T00:00:09.795Z,46.83
2019-02-02T00:02:37.012Z,43.73
2019-02-02T00:05:04.969Z,37.33
2019-02-02T00:07:32.187Z,39.70
2019-02-02T00:09:59.403Z,38.90
2019-02-02T00:12:26.643Z,41.20
2019-02-02T00:14:54.239Z,41.37
2019-02-02T00:17:21.549Z,40.87
2019-02-02T00:19:48.777Z,37.67
2019-02-02T00:22:16.380Z,40.83
2019-02-02T00:24:43.595Z,39.47
2019-02-02T00:27:10.812Z,41.13
2019-02-02T00:29:38.021Z,39.97
2019-02-02T00:32:05.265Z,39.87
2019-02-02T00:34:32.480Z,41.10
2019-02-02T00:36:59.724Z,38.60
2019-02-02T00:39:26.948Z,38.93
2019-02-02T00:41:54.207Z,36.50
2019-02-02T00:44:21.525Z,40.20
2019-02-02T00:46:49.106Z,39.63
2019-02-02T00:49:16.968Z,39.33
2019-02-02T00:51:44.215Z,36.67
2019-02-02T00:54:11.443Z,42.20
2019-02-02T00:56:38.680Z,39.00
2019-02-02T00:59:06.022Z,38.13
2019-02-02T01:01:33.238Z,34.40
2019-02-02T01:04:00.489Z,35.33
2019-02-02T01:06:27.788Z,37.70
2019-02-02T01:08:55.061Z,41.20
2019-02-02T01:11:22.314Z,37.87
2019-02-02T01:13:49.551Z,37.90
2019-02-02T01:16:16.773Z,38.80
2019-02-02T01:18:44.020Z,39.67
2019-02-02T01:21:11.244Z,38.83
2019-02-02T01:23:38.490Z,39.80
2019-02-02T01:26:06.155Z,37.37
2019-02-02T01:28:33.399Z,38.47
2019-02-02T01:31:00.632Z,41.30
2019-02-02T01:33:27.894Z,42.97
2019-02-02T01:35:55.115Z,42.27
2019-02-02T01:38:22.360Z,41.80
2019-02-02T01:40:49.622Z,42.47
2019-02-02T01:43:16.928Z,36.67
2019-02-02T01:45:44.143Z,40.07
2019-02-02T01:48:11.385Z,37.33
2019-02-02T01:50:38.602Z,37.63
2019-02-02T01:53:05.839Z,36.20
2019-02-02T01:55:33.380Z,42.20
2019-02-02T01:58:00.616Z,38.53
2019-02-02T02:00:29.372Z,44.33
2019-02-02T02:02:56.615Z,42.20
2019-02-02T02:05:24.152Z,40.40
2019-02-02T02:07:51.730Z,40.97
2019-02-02T02:10:18.964Z,40.53
2019-02-02T02:12:46.312Z,41.17
2019-02-02T02:15:14.619Z,38.87
2019-02-02T02:17:42.067Z,37.00
2019-02-02T02:20:10.356Z,37.23
2019-02-02T02:22:41.250Z,39.00
2019-02-02T02:25:11.525Z,37.93
2019-02-02T02:27:39.043Z,37.07
2019-02-02T02:30:08.208Z,41.93
2019-02-02T02:32:35.457Z,41.03
2019-02-02T02:35:03.247Z,39.90
2019-02-02T02:37:30.573Z,39.20
2019-02-02T02:39:57.796Z,37.67
2019-02-02T02:42:25.009Z,40.53
2019-02-02T02:44:52.224Z,38.60
2019-02-02T02:47:19.456Z,39.60
2019-02-02T02:49:47.052Z,38.33
2019-02-02T02:52:14.264Z,38.10
2019-02-02T02:54:41.492Z,39.43
2019-02-02T02:57:08.624Z,42.63
2019-02-02T02:59:35.859Z,37.40
2019-02-02T03:02:03.378Z,39.30
2019-02-02T03:04:30.700Z,41.03
2019-02-02T03:06:57.954Z,43.53
2019-02-02T03:09:25.236Z,44.53
2019-02-02T03:11:52.451Z,45.60
2019-02-02T03:14:19.677Z,43.03
2019-02-02T03:16:46.893Z,43.33
2019-02-02T03:19:14.139Z,44.17
2019-02-02T03:21:43.711Z,47.80
2019-02-02T03:24:10.579Z,42.37
2019-02-02T03:26:37.797Z,40.80
2019-02-02T03:29:05.056Z,40.53
2019-02-02T03:31:32.369Z,46.60
2019-02-02T03:33:59.674Z,53.33
2019-02-02T03:36:26.875Z,44.37
2019-02-02T03:38:54.116Z,42.70
2019-02-02T03:41:21.329Z,45.33
2019-02-02T03:43:48.652Z,43.67
2019-02-02T03:46:15.865Z,54.60
2019-02-02T03:48:43.101Z,40.53
2019-02-02T03:51:10.315Z,42.33
2019-02-02T03:53:37.560Z,48.57
2019-02-02T03:56:04.780Z,45.10
2019-02-02T03:58:32.328Z,42.17
2019-02-02T04:00:59.556Z,40.90
2019-02-02T04:03:26.776Z,41.60
2019-02-02T04:05:53.995Z,38.37
2019-02-02T04:08:21.217Z,39.33
2019-02-02T04:10:48.444Z,40.87
2019-02-02T04:13:15.664Z,41.37
2019-02-02T04:15:42.989Z,43.47
2019-02-02T04:18:10.204Z,41.60
2019-02-02T04:20:37.426Z,41.00
2019-02-02T04:23:04.940Z,38.43
2019-02-02T04:25:32.161Z,40.60
2019-02-02T04:27:59.388Z,41.27
2019-02-02T04:30:26.823Z,44.50
2019-02-02T04:32:54.391Z,44.17
2019-02-02T04:35:21.611Z,42.40
2019-02-02T04:37:48.930Z,42.60
2019-02-02T04:40:16.348Z,44.27
2019-02-02T04:42:43.770Z,41.67
2019-02-02T04:45:11.731Z,42.73
2019-02-02T04:47:38.945Z,40.97
2019-02-02T04:50:08.080Z,40.93
2019-02-02T04:52:35.296Z,44.47
2019-02-02T04:55:02.864Z,41.50
2019-02-02T04:57:30.088Z,54.50
2019-02-02T04:59:57.353Z,48.90
2019-02-02T05:02:24.995Z,53.87
2019-02-02T05:04:52.245Z,48.40
2019-02-02T05:07:19.455Z,48.23
2019-02-02T05:09:46.955Z,46.97
2019-02-02T05:12:14.173Z,48.40
2019-02-02T05:14:41.411Z,55.70
2019-02-02T05:17:09.068Z,47.07
2019-02-02T05:19:36.303Z,41.73
2019-02-02T05:22:03.529Z,43.20
2019-02-02T05:24:30.749Z,46.20
2019-02-02T05:26:57.972Z,48.37
2019-02-02T05:29:25.203Z,41.07
2019-02-02T05:31:52.540Z,39.27
2019-02-02T05:34:19.764Z,37.40
2019-02-02T05:36:47.039Z,38.13
2019-02-02T05:39:14.340Z,37.27
2019-02-02T05:41:41.556Z,36.33
2019-02-02T05:44:08.772Z,43.83
2019-02-02T05:46:36.001Z,40.83
2019-02-02T05:49:03.411Z,51.53
2019-02-02T05:51:30.637Z,44.60
2019-02-02T05:53:58.204Z,43.53
2019-02-02T05:56:25.759Z,50.67
2019-02-02T05:58:52.983Z,47.13
2019-02-02T06:01:20.468Z,42.83
2019-02-02T06:03:47.691Z,44.53
2019-02-02T06:06:14.913Z,42.73
2019-02-02T06:08:42.455Z,62.13
2019-02-02T06:11:09.987Z,50.53
2019-02-02T06:13:37.213Z,42.53
2019-02-02T06:16:04.446Z,42.60
2019-02-02T06:18:31.663Z,41.23
2019-02-02T06:20:58.917Z,43.87
2019-02-02T06:23:26.451Z,45.30
2019-02-02T06:25:53.907Z,40.93
2019-02-02T06:28:21.592Z,39.93
2019-02-02T06:30:49.128Z,41.77
2019-02-02T06:33:16.344Z,38.97
2019-02-02T06:35:43.559Z,39.97
2019-02-02T06:38:11.111Z,43.23
2019-02-02T06:40:38.321Z,46.57
2019-02-02T06:43:05.541Z,50.00
2019-02-02T06:45:34.574Z,43.70
2019-02-02T06:48:01.911Z,45.47
2019-02-02T06:50:29.507Z,46.07
2019-02-02T06:52:57.220Z,40.10
2019-02-02T06:55:24.432Z,44.50
2019-02-02T06:57:51.705Z,38.70
2019-02-02T07:00:20.617Z,39.70
2019-02-02T07:02:48.424Z,35.60
2019-02-02T07:05:15.735Z,42.47
2019-02-02T07:07:43.227Z,35.07
2019-02-02T07:10:13.712Z,39.73
2019-02-02T07:12:41.048Z,36.83
2019-02-02T07:15:10.162Z,37.27
2019-02-02T07:17:37.375Z,39.10
2019-02-02T07:20:06.685Z,42.37
2019-02-02T07:22:33.900Z,40.03
2019-02-02T07:25:01.129Z,41.57
2019-02-02T07:27:28.615Z,36.77
2019-02-02T07:29:55.831Z,39.07
2019-02-02T07:32:23.049Z,36.77
2019-02-02T07:34:50.259Z,39.40
2019-02-02T07:37:17.475Z,38.73
2019-02-02T07:39:44.695Z,38.03
2019-02-02T07:42:11.911Z,43.13
2019-02-02T07:44:39.484Z,41.23
2019-02-02T07:47:09.225Z,38.03
2019-02-02T07:49:35.970Z,37.47
2019-02-02T07:52:03.185Z,39.03
2019-02-02T07:54:33.071Z,37.37
2019-02-02T07:56:59.861Z,36.27
2019-02-02T07:59:27.080Z,39.53
2019-02-02T08:01:55.405Z,39.90
2019-02-02T08:04:22.703Z,38.07
2019-02-02T08:06:49.927Z,37.20
2019-02-02T08:09:17.145Z,35.13
2019-02-02T08:11:44.680Z,30.43
2019-02-02T08:14:11.800Z,32.70
2019-02-02T08:16:39.024Z,35.67
2019-02-02T08:19:06.268Z,35.87
2019-02-02T08:21:33.486Z,35.63
2019-02-02T08:24:00.724Z,37.40
2019-02-02T08:26:27.976Z,36.30
2019-02-02T08:28:55.527Z,35.70
2019-02-02T08:31:22.898Z,38.70
2019-02-02T08:33:50.560Z,37.43
2019-02-02T08:36:17.807Z,35.90
2019-02-02T08:38:45.397Z,39.63
2019-02-02T08:41:13.059Z,35.97
2019-02-02T08:43:40.275Z,36.63
2019-02-02T08:46:07.527Z,38.03
2019-02-02T08:48:34.743Z,35.07
2019-02-02T08:51:01.988Z,37.53
2019-02-02T08:53:29.200Z,36.77
2019-02-02T08:55:56.441Z,38.87
2019-02-02T08:58:23.901Z,38.37
2019-02-02T09:01:03.432Z,39.17
2019-02-02T09:03:20.711Z,39.87
2019-02-02T09:05:50.802Z,46.63
2019-02-02T09:08:17.224Z,53.20
2019-02-02T09:10:44.761Z,49.70
2019-02-02T09:13:11.980Z,40.83
2019-02-02T09:15:39.218Z,56.23
2019-02-02T09:18:06.451Z,42.30
2019-02-02T09:20:33.703Z,36.87
2019-02-02T09:23:06.276Z,43.53
2019-02-02T09:25:30.063Z,37.57
2019-02-02T09:27:57.385Z,34.27
2019-02-02T09:30:26.969Z,35.73
2019-02-02T09:32:54.200Z,47.87
2019-02-02T09:35:21.524Z,43.60
2019-02-02T09:37:48.748Z,44.70
2019-02-02T09:40:17.084Z,41.40
2019-02-02T09:42:44.511Z,41.97
2019-02-02T09:45:13.431Z,34.63
2019-02-02T09:47:40.648Z,41.83
2019-02-02T09:50:10.667Z,32.07
2019-02-02T09:52:37.883Z,32.73
2019-02-02T09:55:07.148Z,30.03
2019-02-02T09:57:36.776Z,32.63
2019-02-02T10:00:05.881Z,29.50
2019-02-02T10:02:33.095Z,31.93
2019-02-02T10:05:00.700Z,29.10
2019-02-02T10:07:28.435Z,30.33
2019-02-02T10:09:55.659Z,29.60
2019-02-02T10:12:23.184Z,28.67
2019-02-02T10:14:50.436Z,31.10
2019-02-02T10:17:17.654Z,26.77
2019-02-02T10:19:45.223Z,33.23
2019-02-02T10:22:12.465Z,30.40
2019-02-02T10:24:40.061Z,29.13
2019-02-02T10:27:07.389Z,30.67
2019-02-02T10:29:34.637Z,30.47
2019-02-02T10:32:01.908Z,31.43
2019-02-02T10:34:29.167Z,30.20
2019-02-02T10:36:56.383Z,30.37
2019-02-02T10:39:23.599Z,27.63
2019-02-02T10:41:51.102Z,28.07
2019-02-02T10:44:18.312Z,28.30
2019-02-02T10:46:45.659Z,31.90
2019-02-02T10:49:13.252Z,29.27
2019-02-02T10:51:40.848Z,28.23
2019-02-02T10:54:08.071Z,27.80
2019-02-02T10:56:35.551Z,30.17
2019-02-02T10:59:02.772Z,31.50
2019-02-02T11:01:29.996Z,31.00
2019-02-02T11:03:57.217Z,32.40
2019-02-02T11:06:24.473Z,31.20
2019-02-02T11:08:51.773Z,31.70
2019-02-02T11:11:19.544Z,30.90
2019-02-02T11:13:47.340Z,29.50
2019-02-02T11:16:14.634Z,31.07
2019-02-02T11:18:41.848Z,27.73
2019-02-02T11:21:09.071Z,26.07
2019-02-02T11:23:36.447Z,27.23
2019-02-02T11:26:03.846Z,26.90
2019-02-02T11:28:31.166Z,25.13
2019-02-02T11:30:58.465Z,25.80
2019-02-02T11:33:25.684Z,26.20
2019-02-02T11:35:52.908Z,26.37
2019-02-02T11:38:20.137Z,25.17
2019-02-02T11:40:47.730Z,24.50
2019-02-02T11:43:14.945Z,24.90
2019-02-02T11:45:42.168Z,25.23
2019-02-02T11:48:09.383Z,23.03
2019-02-02T11:50:36.646Z,22.10
2019-02-02T11:53:03.872Z,23.80
2019-02-02T11:55:31.084Z,24.47
2019-02-02T11:57:58.313Z,23.70
2019-02-02T12:00:33.964Z,22.20
2019-02-02T12:03:04.189Z,22.33
2019-02-02T12:05:30.404Z,22.10
2019-02-02T12:07:57.619Z,19.53
2019-02-02T12:10:25.592Z,21.57
2019-02-02T12:12:52.806Z,21.63
2019-02-02T12:15:20.024Z,21.10
2019-02-02T12:17:47.274Z,22.03
2019-02-02T12:20:15.561Z,20.03
2019-02-02T12:22:42.783Z,20.10
2019-02-02T12:25:10.312Z,19.70
2019-02-02T12:27:37.593Z,20.70
2019-02-02T12:30:07.579Z,21.13
2019-02-02T12:32:35.157Z,21.23
2019-02-02T12:35:04.764Z,21.63
2019-02-02T12:37:32.236Z,20.07
2019-02-02T12:39:59.460Z,20.67
2019-02-02T12:42:26.722Z,20.63
2019-02-02T12:44:54.275Z,22.00
2019-02-02T12:47:21.535Z,23.23
2019-02-02T12:49:48.761Z,21.40
2019-02-02T12:52:16.020Z,21.37
2019-02-02T12:54:43.324Z,20.87
2019-02-02T12:57:10.595Z,21.40
2019-02-02T12:59:38.175Z,22.13
2019-02-02T13:02:05.588Z,21.63
2019-02-02T13:04:32.812Z,21.63
2019-02-02T13:07:00.067Z,22.53
2019-02-02T13:09:27.328Z,20.20
2019-02-02T13:11:56.158Z,19.63
2019-02-02T13:14:23.777Z,18.33
2019-02-02T13:16:51.118Z,19.63
2019-02-02T13:19:18.331Z,18.13
2019-02-02T13:21:45.604Z,18.67
2019-02-02T13:24:12.831Z,18.37
2019-02-02T13:26:40.083Z,18.23
2019-02-02T13:29:07.313Z,18.53
2019-02-02T13:31:34.604Z,17.63
2019-02-02T13:34:02.484Z,16.37
2019-02-02T13:36:29.743Z,18.43
2019-02-02T13:38:57.016Z,18.43
2019-02-02T13:41:24.319Z,17.90
2019-02-02T13:43:52.068Z,18.43
2019-02-02T13:46:19.279Z,18.47
2019-02-02T13:48:46.499Z,17.73
2019-02-02T13:51:13.717Z,16.93
2019-02-02T13:53:40.936Z,14.83
2019-02-02T13:56:08.153Z,15.37
2019-02-02T13:58:35.372Z,14.20
2019-02-02T14:01:02.591Z,15.33
2019-02-02T14:03:29.827Z,13.50
2019-02-02T14:05:57.049Z,13.40
2019-02-02T14:08:24.283Z,13.50
2019-02-02T14:10:51.504Z,13.83
2019-02-02T14:13:18.724Z,13.83
2019-02-02T14:15:46.055Z,14.27
2019-02-02T14:18:13.292Z,13.43
2019-02-02T14:20:40.518Z,14.30
2019-02-02T14:23:07.735Z,14.37
2019-02-02T14:25:35.284Z,15.10
2019-02-02T14:28:02.524Z,13.67
2019-02-02T14:30:29.847Z,13.97
2019-02-02T14:32:57.059Z,13.83
2019-02-02T14:35:25.683Z,13.73
2019-02-02T14:37:53.330Z,13.00
2019-02-02T14:40:20.616Z,13.50
2019-02-02T14:42:47.884Z,14.07
2019-02-02T14:45:17.935Z,13.57
2019-02-02T14:47:45.209Z,13.43
2019-02-02T14:50:14.616Z,15.27
2019-02-02T14:52:42.517Z,14.40
2019-02-02T14:55:11.885Z,14.47
2019-02-02T14:57:39.152Z,15.10
2019-02-02T15:00:10.375Z,15.33
2019-02-02T15:02:37.645Z,16.20
2019-02-02T15:05:05.467Z,16.17
2019-02-02T15:07:32.740Z,15.07
2019-02-02T15:09:59.963Z,16.20
2019-02-02T15:12:27.507Z,15.27
2019-02-02T15:14:54.628Z,15.83
2019-02-02T15:17:21.900Z,15.70
2019-02-02T15:19:49.124Z,16.10
2019-02-02T15:22:16.422Z,17.23
2019-02-02T15:24:43.986Z,17.80
2019-02-02T15:27:11.220Z,17.43
2019-02-02T15:29:38.440Z,17.27
2019-02-02T15:32:05.739Z,18.17
2019-02-02T15:34:32.852Z,18.67
2019-02-02T15:37:00.064Z,18.43
2019-02-02T15:39:27.584Z,18.53
2019-02-02T15:41:54.805Z,18.53
2019-02-02T15:44:22.111Z,19.23
2019-02-02T15:46:49.468Z,18.77
2019-02-02T15:49:16.763Z,17.90
2019-02-02T15:51:43.980Z,18.50
2019-02-02T15:54:11.256Z,20.47
2019-02-02T15:56:38.473Z,19.77
2019-02-02T15:59:05.753Z,19.73
2019-02-02T16:01:33.347Z,21.93
2019-02-02T16:04:00.882Z,22.13
2019-02-02T16:06:28.104Z,21.67
2019-02-02T16:08:55.728Z,20.37
2019-02-02T16:11:23.280Z,22.43
2019-02-02T16:13:50.548Z,21.93
2019-02-02T16:16:17.767Z,27.83
2019-02-02T16:18:45.033Z,28.30
2019-02-02T16:21:12.607Z,27.30
2019-02-02T16:23:39.872Z,27.87
2019-02-02T16:26:07.089Z,31.43
2019-02-02T16:28:34.359Z,31.53
2019-02-02T16:31:01.576Z,31.00
2019-02-02T16:33:28.839Z,36.27
2019-02-02T16:35:56.050Z,35.37
2019-02-02T16:38:23.332Z,33.80
2019-02-02T16:40:50.935Z,32.23
2019-02-02T16:43:18.245Z,34.73
2019-02-02T16:45:45.736Z,32.77
2019-02-02T16:48:12.953Z,34.10
2019-02-02T16:50:40.167Z,35.83
2019-02-02T16:53:07.394Z,35.83
2019-02-02T16:55:34.612Z,35.00
2019-02-02T16:58:02.193Z,34.10
2019-02-02T17:00:30.940Z,32.83
2019-02-02T17:02:58.339Z,29.03
2019-02-02T17:05:25.725Z,28.53
2019-02-02T17:07:52.957Z,30.30
2019-02-02T17:10:22.247Z,30.03
2019-02-02T17:12:49.467Z,30.90
2019-02-02T17:15:17.368Z,33.77
2019-02-02T17:17:44.615Z,31.73
2019-02-02T17:20:14.439Z,27.83
2019-02-02T17:22:41.693Z,31.33
2019-02-02T17:25:11.771Z,33.40
2019-02-02T17:27:39.059Z,29.47
2019-02-02T17:30:09.323Z,29.30
2019-02-02T17:32:36.841Z,28.17
2019-02-02T17:35:04.913Z,31.77
2019-02-02T17:37:32.237Z,28.30
2019-02-02T17:39:59.531Z,32.67
2019-02-02T17:42:26.777Z,32.03
2019-02-02T17:44:54.160Z,32.93
2019-02-02T17:47:21.412Z,33.87
2019-02-02T17:49:48.695Z,35.97
2019-02-02T17:52:15.920Z,34.13
2019-02-02T17:54:43.216Z,37.73
2019-02-02T17:57:10.457Z,33.83
2019-02-02T17:59:37.732Z,31.57
2019-02-02T18:02:05.511Z,38.07
2019-02-02T18:04:39.515Z,35.20
2019-02-02T18:07:02.874Z,32.43
2019-02-02T18:09:30.257Z,32.83
2019-02-02T18:11:57.496Z,28.73
2019-02-02T18:14:25.080Z,29.90
2019-02-02T18:16:52.311Z,32.80
2019-02-02T18:19:19.553Z,30.63
2019-02-02T18:21:46.783Z,36.50
2019-02-02T18:24:14.443Z,38.33
2019-02-02T18:26:41.679Z,36.53
2019-02-02T18:29:09.152Z,39.07
2019-02-02T18:31:36.711Z,39.67
2019-02-02T18:34:04.165Z,33.00
2019-02-02T18:36:31.942Z,33.37
2019-02-02T18:38:59.493Z,32.57
2019-02-02T18:41:27.067Z,34.20
2019-02-02T18:43:54.608Z,34.20
2019-02-02T18:46:21.839Z,32.93
2019-02-02T18:48:49.455Z,35.83
2019-02-02T18:51:16.981Z,31.90
2019-02-02T18:53:44.239Z,35.90
2019-02-02T18:56:13.896Z,36.57
2019-02-02T18:58:41.123Z,34.63
2019-02-02T19:01:08.351Z,30.30
2019-02-02T19:03:35.637Z,27.30
2019-02-02T19:06:03.133Z,24.47
2019-02-02T19:08:30.360Z,28.30
2019-02-02T19:10:58.032Z,29.50
2019-02-02T19:13:25.268Z,26.47
2019-02-02T19:15:52.684Z,24.10
2019-02-02T19:18:19.916Z,27.03
2019-02-02T19:20:47.192Z,27.93
2019-02-02T19:23:24.642Z,36.13
2019-02-02T19:25:43.631Z,37.10
2019-02-02T19:28:10.911Z,34.60
2019-02-02T19:30:38.275Z,41.40
2019-02-02T19:33:05.984Z,47.47
2019-02-02T19:35:33.265Z,46.07
2019-02-02T19:38:00.496Z,47.83
2019-02-02T19:40:27.771Z,43.33
2019-02-02T19:42:55.021Z,40.80
2019-02-02T19:45:23.340Z,38.47
2019-02-02T19:47:50.727Z,35.00
2019-02-02T19:50:20.742Z,33.40
2019-02-02T19:52:48.036Z,38.60
2019-02-02T19:55:15.357Z,39.33
2019-02-02T19:57:42.615Z,40.07
2019-02-02T20:00:16.055Z,39.73
2019-02-02T20:02:43.284Z,43.67
2019-02-02T20:05:10.514Z,43.17
2019-02-02T20:07:37.759Z,47.30
2019-02-02T20:10:06.392Z,39.43
2019-02-02T20:12:33.627Z,34.53
2019-02-02T20:15:00.856Z,34.10
2019-02-02T20:17:28.133Z,32.17
2019-02-02T20:19:55.359Z,32.90
2019-02-02T20:22:22.592Z,33.00
2019-02-02T20:24:49.823Z,33.43
2019-02-02T20:27:17.414Z,35.67
2019-02-02T20:29:44.649Z,34.83
2019-02-02T20:32:11.901Z,33.87
2019-02-02T20:34:39.148Z,37.57
2019-02-02T20:37:06.955Z,34.30
2019-02-02T20:39:34.190Z,31.23
2019-02-02T20:42:01.420Z,33.27
2019-02-02T20:44:28.675Z,33.40
2019-02-02T20:46:56.019Z,30.93
2019-02-02T20:49:23.732Z,32.53
2019-02-02T20:51:50.970Z,32.70
2019-02-02T20:54:19.119Z,32.20
2019-02-02T20:56:46.899Z,26.43
2019-02-02T20:59:14.223Z,25.03
2019-02-02T21:01:41.459Z,27.10
2019-02-02T21:04:08.792Z,24.73
2019-02-02T21:06:36.176Z,22.53
2019-02-02T21:09:05.663Z,27.43
2019-02-02T21:11:32.943Z,29.87
2019-02-02T21:14:00.183Z,29.63
2019-02-02T21:16:27.459Z,27.73
2019-02-02T21:18:54.687Z,28.93
2019-02-02T21:21:21.973Z,26.33
2019-02-02T21:23:49.420Z,26.93
2019-02-02T21:26:16.892Z,26.07
2019-02-02T21:28:50.501Z,28.73
2019-02-02T21:31:14.258Z,29.63
2019-02-02T21:33:41.600Z,30.10
2019-02-02T21:36:08.836Z,30.80
2019-02-02T21:38:36.075Z,26.10
2019-02-02T21:41:05.060Z,26.87
2019-02-02T21:43:32.343Z,22.70
2019-02-02T21:45:59.667Z,23.10
2019-02-02T21:48:27.269Z,22.00
2019-02-02T21:50:54.603Z,21.70
2019-02-02T21:53:21.884Z,21.07
2019-02-02T21:55:49.533Z,23.30
2019-02-02T21:58:16.909Z,21.30
2019-02-02T22:00:44.234Z,21.20
2019-02-02T22:03:11.617Z,20.47
2019-02-02T22:05:38.949Z,20.07
2019-02-02T22:08:07.453Z,20.77
2019-02-02T22:10:34.793Z,20.80
2019-02-02T22:13:02.373Z,21.37
2019-02-02T22:15:30.243Z,20.47
2019-02-02T22:17:57.630Z,18.77
2019-02-02T22:20:25.358Z,18.03
2019-02-02T22:22:53.108Z,18.73
2019-02-02T22:25:24.710Z,18.47
2019-02-02T22:27:52.346Z,20.13
2019-02-02T22:30:22.015Z,19.20
2019-02-02T22:32:49.448Z,19.27
2019-02-02T22:35:17.036Z,18.73
2019-02-02T22:37:44.340Z,19.13
2019-02-02T22:40:13.948Z,19.10
2019-02-02T22:42:41.524Z,19.70
2019-02-02T22:45:12.907Z,19.00
2019-02-02T22:47:40.261Z,19.17
2019-02-02T22:50:09.265Z,18.00
2019-02-02T22:52:36.840Z,19.47
2019-02-02T22:55:04.837Z,17.60
2019-02-02T22:57:32.476Z,16.27
2019-02-02T23:00:00.333Z,16.70
2019-02-02T23:02:27.619Z,17.83
2019-02-02T23:05:15.456Z,17.17
2019-02-02T23:08:04.937Z,15.90
2019-02-02T23:10:58.596Z,14.77
2019-02-02T23:14:13.155Z,13.10
2019-02-02T23:16:40.396Z,12.97
2019-02-02T23:19:07.873Z,12.93
2019-02-02T23:21:35.195Z,13.67
2019-02-02T23:24:02.342Z,11.97
2019-02-02T23:26:29.675Z,12.03
2019-02-02T23:28:56.934Z,12.23
2019-02-02T23:31:24.460Z,12.53
2019-02-02T23:33:51.815Z,13.60
2019-02-02T23:36:19.039Z,12.93
2019-02-02T23:38:46.299Z,11.70
2019-02-02T23:41:13.899Z,13.10
2019-02-02T23:43:41.505Z,12.33
2019-02-02T23:46:09.123Z,12.57
2019-02-02T23:48:36.380Z,13.47
2019-02-02T23:51:04.291Z,14.57
2019-02-02T23:53:31.550Z,13.43
2019-02-02T23:55:58.876Z,12.90
2019-02-02T23:58:26.505Z,13.83
